Saint Edward, Nebraska
Current Conditions -  °F | °C
As of 6:55 AM on Thursday 30 Oct 2014 (Local Time) from KBVN Reporting Station
Clear Clear  
Wind Chill: 39°   Ceiling: Unl
Heat Index: 43°   Visibility: 10mi
Dew Point: 32°   Wind: 6mph
Humidity: 66%   Direction: 340°NNW
Pressure: 30.07"   Gusts: NA
Location:  41.57°N, 97.87°W
Report Text: KBVN 301155Z AUTO 34005KT 10SM CLR 06/00 A3007 RMK AO2 T00590000 10062 20006
Loading
Personal Weather Stations






























Interactive Weather Map
Tropical Storm Tracking
New forecast layout! Learn more

10-Day Weather Forecast

Advertisements
Track Severe Weather on mobile